sensor_id;sensor_type;location;lat;lon;timestamp;noise_LAeq;noise_LA_min;noise_LA_max;noise_LA01;noise_LA95
57092;Laerm;42968;52.094;4.328;2023-05-19T00:01:56;39.77;35.04;51.16;;
57092;Laerm;42968;52.094;4.328;2023-05-19T00:04:24;53.24;35.36;69.95;;
57092;Laerm;42968;52.094;4.328;2023-05-19T00:06:49;50.98;35.04;71.10;;
57092;Laerm;42968;52.094;4.328;2023-05-19T00:09:15;45.72;35.94;68.21;;
57092;Laerm;42968;52.094;4.328;2023-05-19T00:11:41;53.75;35.66;68.60;;
57092;Laerm;42968;52.094;4.328;2023-05-19T00:14:07;48.41;36.20;65.59;;
57092;Laerm;42968;52.094;4.328;2023-05-19T00:16:33;45.20;35.66;65.05;;
57092;Laerm;42968;52.094;4.328;2023-05-19T00:18:59;54.49;37.32;68.72;;
57092;Laerm;42968;52.094;4.328;2023-05-19T00:21:25;56.05;38.05;70.99;;
57092;Laerm;42968;52.094;4.328;2023-05-19T00:23:51;55.75;37.87;71.93;;
57092;Laerm;42968;52.094;4.328;2023-05-19T00:26:16;55.04;37.32;70.75;;
57092;Laerm;42968;52.094;4.328;2023-05-19T00:28:41;55.46;35.66;71.57;;
57092;Laerm;42968;52.094;4.328;2023-05-19T00:31:06;47.07;35.04;66.37;;
57092;Laerm;42968;52.094;4.328;2023-05-19T00:33:32;53.11;36.69;72.62;;
57092;Laerm;42968;52.094;4.328;2023-05-19T00:35:58;40.61;35.66;50.01;;
57092;Laerm;42968;52.094;4.328;2023-05-19T00:38:23;53.42;35.66;71.89;;
57092;Laerm;42968;52.094;4.328;2023-05-19T00:40:48;51.96;35.94;68.17;;
57092;Laerm;42968;52.094;4.328;2023-05-19T00:43:14;52.81;33.90;69.76;;
57092;Laerm;42968;52.094;4.328;2023-05-19T00:45:39;60.38;35.94;77.68;;
57092;Laerm;42968;52.094;4.328;2023-05-19T00:48:05;40.05;35.66;46.43;;
57092;Laerm;42968;52.094;4.328;2023-05-19T00:50:30;40.60;35.36;46.43;;
57092;Laerm;42968;52.094;4.328;2023-05-19T00:52:56;57.07;35.66;71.88;;
57092;Laerm;42968;52.094;4.328;2023-05-19T00:55:22;54.66;35.04;72.03;;
57092;Laerm;42968;52.094;4.328;2023-05-19T00:57:49;46.80;35.31;64.50;;
57092;Laerm;42968;52.094;4.328;2023-05-19T01:00:14;50.58;35.94;67.86;;
57092;Laerm;42968;52.094;4.328;2023-05-19T01:02:40;39.60;34.31;43.14;;
57092;Laerm;42968;52.094;4.328;2023-05-19T01:05:06;55.42;36.20;68.64;;
57092;Laerm;42968;52.094;4.328;2023-05-19T01:07:32;53.14;35.04;70.41;;
57092;Laerm;42968;52.094;4.328;2023-05-19T01:09:57;55.54;35.04;72.30;;
57092;Laerm;42968;52.094;4.328;2023-05-19T01:12:23;55.49;36.45;75.02;;
57092;Laerm;42968;52.094;4.328;2023-05-19T01:14:48;55.77;35.04;72.16;;
57092;Laerm;42968;52.094;4.328;2023-05-19T01:17:33;51.70;35.04;68.87;;
57092;Laerm;42968;52.094;4.328;2023-05-19T01:33:02;57.46;35.66;74.06;;
57092;Laerm;42968;52.094;4.328;2023-05-19T01:35:28;50.70;35.36;67.12;;
57092;Laerm;42968;52.094;4.328;2023-05-19T01:37:55;55.10;35.04;72.39;;
57092;Laerm;42968;52.094;4.328;2023-05-19T01:40:21;54.86;35.36;71.94;;
57092;Laerm;42968;52.094;4.328;2023-05-19T01:42:47;39.27;35.66;44.19;;
57092;Laerm;42968;52.094;4.328;2023-05-19T01:45:14;50.51;36.20;67.23;;
57092;Laerm;42968;52.094;4.328;2023-05-19T01:47:41;39.68;34.69;47.38;;
57092;Laerm;42968;52.094;4.328;2023-05-19T01:50:06;54.96;35.94;72.65;;
57092;Laerm;42968;52.094;4.328;2023-05-19T01:52:32;51.40;36.45;67.26;;
57092;Laerm;42968;52.094;4.328;2023-05-19T01:54:57;54.51;36.20;71.89;;
57092;Laerm;42968;52.094;4.328;2023-05-19T01:57:42;39.29;35.94;42.93;;
57092;Laerm;42968;52.094;4.328;2023-05-19T02:00:10;38.99;34.69;43.99;;
57092;Laerm;42968;52.094;4.328;2023-05-19T02:08:00;39.41;34.31;43.34;;
57092;Laerm;42968;52.094;4.328;2023-05-19T02:10:30;54.79;35.36;73.01;;
57092;Laerm;42968;52.094;4.328;2023-05-19T02:12:57;41.46;36.20;52.90;;
57092;Laerm;42968;52.094;4.328;2023-05-19T02:15:25;41.40;36.20;52.97;;
57092;Laerm;42968;52.094;4.328;2023-05-19T02:17:53;41.36;35.66;51.75;;
57092;Laerm;42968;52.094;4.328;2023-05-19T02:20:19;51.01;35.66;67.36;;
57092;Laerm;42968;52.094;4.328;2023-05-19T02:22:46;52.66;36.45;69.46;;
57092;Laerm;42968;52.094;4.328;2023-05-19T02:25:11;50.84;36.45;66.10;;
57092;Laerm;42968;52.094;4.328;2023-05-19T02:27:37;50.36;36.69;66.74;;
57092;Laerm;42968;52.094;4.328;2023-05-19T02:30:03;49.68;35.66;68.83;;
57092;Laerm;42968;52.094;4.328;2023-05-19T02:32:30;56.10;36.45;69.53;;
57092;Laerm;42968;52.094;4.328;2023-05-19T02:34:55;54.00;36.69;68.07;;
57092;Laerm;42968;52.094;4.328;2023-05-19T02:37:20;55.92;36.69;71.32;;
57092;Laerm;42968;52.094;4.328;2023-05-19T02:39:47;54.52;35.94;69.55;;
57092;Laerm;42968;52.094;4.328;2023-05-19T02:42:13;53.56;37.52;67.10;;
57092;Laerm;42968;52.094;4.328;2023-05-19T02:44:41;49.73;37.52;69.16;;
57092;Laerm;42968;52.094;4.328;2023-05-19T02:47:07;55.88;38.95;70.59;;
57092;Laerm;42968;52.094;4.328;2023-05-19T02:49:32;58.10;38.52;71.99;;
57092;Laerm;42968;52.094;4.328;2023-05-19T02:52:00;56.39;38.02;73.10;;
57092;Laerm;42968;52.094;4.328;2023-05-19T02:54:25;55.84;37.52;71.20;;
57092;Laerm;42968;52.094;4.328;2023-05-19T02:56:51;56.21;38.05;72.45;;
57092;Laerm;42968;52.094;4.328;2023-05-19T02:59:16;60.40;42.71;74.07;;
57092;Laerm;42968;52.094;4.328;2023-05-19T03:01:41;50.52;38.21;69.19;;
57092;Laerm;42968;52.094;4.328;2023-05-19T03:04:06;53.55;37.88;68.33;;
57092;Laerm;42968;52.094;4.328;2023-05-19T03:06:32;56.00;38.95;68.95;;
57092;Laerm;42968;52.094;4.328;2023-05-19T03:08:57;55.56;38.67;72.97;;
57092;Laerm;42968;52.094;4.328;2023-05-19T03:11:23;55.57;39.08;71.35;;
57092;Laerm;42968;52.094;4.328;2023-05-19T03:13:48;60.76;41.14;76.48;;
57092;Laerm;42968;52.094;4.328;2023-05-19T03:16:13;57.90;39.70;72.86;;
57092;Laerm;42968;52.094;4.328;2023-05-19T03:18:39;59.98;40.96;75.09;;
57092;Laerm;42968;52.094;4.328;2023-05-19T03:21:04;60.49;40.23;77.24;;
57092;Laerm;42968;52.094;4.328;2023-05-19T03:23:30;57.65;39.58;75.78;;
57092;Laerm;42968;52.094;4.328;2023-05-19T03:25:55;59.73;40.23;73.88;;
57092;Laerm;42968;52.094;4.328;2023-05-19T03:28:20;60.12;41.81;75.90;;
57092;Laerm;42968;52.094;4.328;2023-05-19T03:30:47;57.62;39.34;70.85;;
57092;Laerm;42968;52.094;4.328;2023-05-19T03:33:14;64.39;44.11;76.27;;
57092;Laerm;42968;52.094;4.328;2023-05-19T03:35:40;65.74;40.33;81.41;;
57092;Laerm;42968;52.094;4.328;2023-05-19T03:38:05;60.71;41.68;73.27;;
57092;Laerm;42968;52.094;4.328;2023-05-19T03:40:30;60.55;40.62;75.64;;
57092;Laerm;42968;52.094;4.328;2023-05-19T03:42:55;60.41;40.54;73.32;;
57092;Laerm;42968;52.094;4.328;2023-05-19T03:45:21;59.61;41.30;75.80;;
57092;Laerm;42968;52.094;4.328;2023-05-19T03:47:46;58.99;40.43;73.43;;
57092;Laerm;42968;52.094;4.328;2023-05-19T03:50:11;60.15;42.65;73.28;;
57092;Laerm;42968;52.094;4.328;2023-05-19T03:52:37;60.86;40.13;75.63;;
57092;Laerm;42968;52.094;4.328;2023-05-19T03:55:03;62.17;42.41;74.46;;
57092;Laerm;42968;52.094;4.328;2023-05-19T03:57:29;62.77;40.80;79.69;;
57092;Laerm;42968;52.094;4.328;2023-05-19T03:59:54;62.39;41.61;79.00;;
57092;Laerm;42968;52.094;4.328;2023-05-19T04:02:19;61.31;43.19;75.00;;
57092;Laerm;42968;52.094;4.328;2023-05-19T04:04:44;63.77;42.09;81.57;;
57092;Laerm;42968;52.094;4.328;2023-05-19T04:07:10;59.37;41.89;71.68;;
57092;Laerm;42968;52.094;4.328;2023-05-19T04:09:36;57.48;40.62;71.42;;
57092;Laerm;42968;52.094;4.328;2023-05-19T04:12:02;60.50;40.89;74.24;;
57092;Laerm;42968;52.094;4.328;2023-05-19T04:14:27;62.83;42.93;77.16;;
57092;Laerm;42968;52.094;4.328;2023-05-19T04:16:52;63.39;44.43;75.62;;
57092;Laerm;42968;52.094;4.328;2023-05-19T04:19:18;64.55;44.58;74.40;;
57092;Laerm;42968;52.094;4.328;2023-05-19T04:21:43;62.05;43.04;73.85;;
57092;Laerm;42968;52.094;4.328;2023-05-19T04:24:08;65.21;43.29;79.24;;
57092;Laerm;42968;52.094;4.328;2023-05-19T04:26:34;65.94;44.11;78.45;;
57092;Laerm;42968;52.094;4.328;2023-05-19T04:28:59;62.69;44.19;76.22;;
57092;Laerm;42968;52.094;4.328;2023-05-19T04:31:28;62.34;41.22;75.40;;
57092;Laerm;42968;52.094;4.328;2023-05-19T04:33:53;63.93;44.65;74.05;;
57092;Laerm;42968;52.094;4.328;2023-05-19T04:36:19;64.23;42.53;80.63;;
57092;Laerm;42968;52.094;4.328;2023-05-19T04:38:45;64.41;44.72;77.71;;
57092;Laerm;42968;52.094;4.328;2023-05-19T04:41:11;65.86;44.34;78.93;;
57092;Laerm;42968;52.094;4.328;2023-05-19T04:43:36;65.78;48.51;76.19;;
57092;Laerm;42968;52.094;4.328;2023-05-19T04:46:06;66.26;45.51;76.90;;
57092;Laerm;42968;52.094;4.328;2023-05-19T04:48:31;65.44;44.87;76.90;;
57092;Laerm;42968;52.094;4.328;2023-05-19T04:50:57;67.70;46.28;78.54;;
57092;Laerm;42968;52.094;4.328;2023-05-19T04:53:25;68.91;47.42;79.38;;
57092;Laerm;42968;52.094;4.328;2023-05-19T04:55:50;66.03;42.98;78.77;;
57092;Laerm;42968;52.094;4.328;2023-05-19T04:58:16;65.97;47.14;79.31;;
57092;Laerm;42968;52.094;4.328;2023-05-19T05:00:42;64.93;44.87;76.64;;
57092;Laerm;42968;52.094;4.328;2023-05-19T05:03:07;65.73;47.77;77.62;;
57092;Laerm;42968;52.094;4.328;2023-05-19T05:05:33;63.65;43.14;79.90;;
57092;Laerm;42968;52.094;4.328;2023-05-19T05:07:58;65.12;45.57;80.71;;
57092;Laerm;42968;52.094;4.328;2023-05-19T05:10:24;65.02;43.63;76.84;;
57092;Laerm;42968;52.094;4.328;2023-05-19T05:12:49;64.64;45.63;74.16;;
57092;Laerm;42968;52.094;4.328;2023-05-19T05:15:17;65.83;45.63;74.99;;
57092;Laerm;42968;52.094;4.328;2023-05-19T05:17:43;66.33;43.77;80.87;;
57092;Laerm;42968;52.094;4.328;2023-05-19T05:20:09;67.39;45.77;79.74;;
57092;Laerm;42968;52.094;4.328;2023-05-19T05:22:35;64.18;44.34;78.06;;
57092;Laerm;42968;52.094;4.328;2023-05-19T05:25:02;63.72;43.34;74.15;;
57092;Laerm;42968;52.094;4.328;2023-05-19T05:27:28;67.36;46.66;79.94;;
57092;Laerm;42968;52.094;4.328;2023-05-19T05:29:53;64.97;45.01;77.52;;
57092;Laerm;42968;52.094;4.328;2023-05-19T05:32:18;66.67;43.44;79.81;;
57092;Laerm;42968;52.094;4.328;2023-05-19T05:34:43;65.14;44.65;76.86;;
57092;Laerm;42968;52.094;4.328;2023-05-19T05:37:09;66.59;42.88;79.79;;
57092;Laerm;42968;52.094;4.328;2023-05-19T05:39:35;66.12;44.15;75.59;;
57092;Laerm;42968;52.094;4.328;2023-05-19T05:42:00;66.98;44.62;77.17;;
57092;Laerm;42968;52.094;4.328;2023-05-19T05:44:25;66.52;45.86;79.54;;
57092;Laerm;42968;52.094;4.328;2023-05-19T05:46:50;67.16;45.27;81.95;;
57092;Laerm;42968;52.094;4.328;2023-05-19T05:49:16;66.85;49.63;77.38;;
57092;Laerm;42968;52.094;4.328;2023-05-19T05:51:41;65.70;44.80;81.31;;
57092;Laerm;42968;52.094;4.328;2023-05-19T05:54:06;67.64;47.55;78.33;;
57092;Laerm;42968;52.094;4.328;2023-05-19T05:56:33;67.47;50.96;76.65;;
57092;Laerm;42968;52.094;4.328;2023-05-19T05:59:00;67.72;43.77;84.89;;
57092;Laerm;42968;52.094;4.328;2023-05-19T06:01:26;64.98;45.69;75.92;;
57092;Laerm;42968;52.094;4.328;2023-05-19T06:03:52;67.87;52.85;81.84;;
57092;Laerm;42968;52.094;4.328;2023-05-19T06:06:17;66.12;44.31;74.77;;
57092;Laerm;42968;52.094;4.328;2023-05-19T06:08:42;67.42;49.65;79.83;;
57092;Laerm;42968;52.094;4.328;2023-05-19T06:11:07;69.29;50.00;81.16;;
57092;Laerm;42968;52.094;4.328;2023-05-19T06:13:34;66.69;47.50;76.77;;
57092;Laerm;42968;52.094;4.328;2023-05-19T06:15:59;66.24;45.42;78.24;;
57092;Laerm;42968;52.094;4.328;2023-05-19T06:18:25;69.23;50.15;85.24;;
57092;Laerm;42968;52.094;4.328;2023-05-19T06:20:50;66.20;43.68;76.09;;
57092;Laerm;42968;52.094;4.328;2023-05-19T06:23:15;67.80;51.26;74.60;;
57092;Laerm;42968;52.094;4.328;2023-05-19T06:25:40;67.54;49.08;77.70;;
57092;Laerm;42968;52.094;4.328;2023-05-19T06:28:06;68.49;47.18;83.43;;
57092;Laerm;42968;52.094;4.328;2023-05-19T06:30:31;66.43;48.21;75.32;;
57092;Laerm;42968;52.094;4.328;2023-05-19T06:32:56;67.69;52.26;79.82;;
57092;Laerm;42968;52.094;4.328;2023-05-19T06:35:22;67.22;48.71;78.35;;
57092;Laerm;42968;52.094;4.328;2023-05-19T06:37:47;67.51;47.42;80.40;;
57092;Laerm;42968;52.094;4.328;2023-05-19T06:40:12;67.24;50.35;76.06;;
57092;Laerm;42968;52.094;4.328;2023-05-19T06:42:37;68.70;51.95;85.01;;
57092;Laerm;42968;52.094;4.328;2023-05-19T06:45:03;66.20;47.00;78.27;;
57092;Laerm;42968;52.094;4.328;2023-05-19T06:47:28;68.68;52.50;78.75;;
57092;Laerm;42968;52.094;4.328;2023-05-19T06:49:53;68.72;48.31;80.85;;
57092;Laerm;42968;52.094;4.328;2023-05-19T06:52:19;67.52;43.58;80.72;;
57092;Laerm;42968;52.094;4.328;2023-05-19T06:54:45;68.20;51.59;79.17;;
57092;Laerm;42968;52.094;4.328;2023-05-19T06:57:10;65.82;45.01;78.14;;
57092;Laerm;42968;52.094;4.328;2023-05-19T06:59:36;66.57;51.83;76.60;;
57092;Laerm;42968;52.094;4.328;2023-05-19T07:02:01;67.51;47.10;82.38;;
57092;Laerm;42968;52.094;4.328;2023-05-19T07:04:27;67.38;49.62;77.76;;
57092;Laerm;42968;52.094;4.328;2023-05-19T07:06:52;68.44;48.05;78.65;;
57092;Laerm;42968;52.094;4.328;2023-05-19T07:09:17;67.77;44.35;75.68;;
57092;Laerm;42968;52.094;4.328;2023-05-19T07:11:42;67.05;47.59;75.76;;
57092;Laerm;42968;52.094;4.328;2023-05-19T07:14:08;67.72;44.80;78.25;;
57092;Laerm;42968;52.094;4.328;2023-05-19T07:16:33;66.28;44.54;77.61;;
57092;Laerm;42968;52.094;4.328;2023-05-19T07:18:58;66.65;48.80;75.43;;
57092;Laerm;42968;52.094;4.328;2023-05-19T07:21:23;67.27;52.51;74.75;;
57092;Laerm;42968;52.094;4.328;2023-05-19T07:23:49;68.09;46.05;79.84;;
57092;Laerm;42968;52.094;4.328;2023-05-19T07:26:14;67.40;47.16;81.90;;
57092;Laerm;42968;52.094;4.328;2023-05-19T07:28:39;67.56;53.24;80.00;;
57092;Laerm;42968;52.094;4.328;2023-05-19T07:31:06;68.44;49.79;82.05;;
57092;Laerm;42968;52.094;4.328;2023-05-19T07:33:32;67.95;50.50;76.82;;
57092;Laerm;42968;52.094;4.328;2023-05-19T07:35:57;68.87;48.81;80.25;;
57092;Laerm;42968;52.094;4.328;2023-05-19T07:38:23;66.56;51.58;77.57;;
57092;Laerm;42968;52.094;4.328;2023-05-19T07:40:48;67.21;43.90;77.26;;
57092;Laerm;42968;52.094;4.328;2023-05-19T07:43:13;71.39;55.59;96.21;;
57092;Laerm;42968;52.094;4.328;2023-05-19T07:45:38;67.50;52.86;75.73;;
57092;Laerm;42968;52.094;4.328;2023-05-19T07:48:04;67.16;48.07;76.02;;
57092;Laerm;42968;52.094;4.328;2023-05-19T07:50:29;67.64;44.47;77.04;;
57092;Laerm;42968;52.094;4.328;2023-05-19T07:52:54;68.70;53.18;78.34;;
57092;Laerm;42968;52.094;4.328;2023-05-19T07:55:19;69.37;47.61;79.15;;
57092;Laerm;42968;52.094;4.328;2023-05-19T07:57:47;67.74;52.96;77.89;;
57092;Laerm;42968;52.094;4.328;2023-05-19T08:00:12;68.58;51.55;79.21;;
57092;Laerm;42968;52.094;4.328;2023-05-19T08:02:38;67.25;52.37;74.82;;
57092;Laerm;42968;52.094;4.328;2023-05-19T08:05:03;67.10;50.17;77.43;;
57092;Laerm;42968;52.094;4.328;2023-05-19T08:07:29;68.48;45.75;80.24;;
57092;Laerm;42968;52.094;4.328;2023-05-19T08:09:54;69.43;46.95;79.82;;
57092;Laerm;42968;52.094;4.328;2023-05-19T08:12:19;78.67;55.78;100.25;;
57092;Laerm;42968;52.094;4.328;2023-05-19T08:14:45;67.08;46.80;75.90;;
57092;Laerm;42968;52.094;4.328;2023-05-19T08:17:10;68.69;53.24;81.49;;
57092;Laerm;42968;52.094;4.328;2023-05-19T08:19:37;67.00;46.43;76.22;;
57092;Laerm;42968;52.094;4.328;2023-05-19T08:22:02;66.94;49.53;75.16;;
57092;Laerm;42968;52.094;4.328;2023-05-19T08:24:27;67.21;54.06;77.81;;
57092;Laerm;42968;52.094;4.328;2023-05-19T08:26:54;67.69;50.27;78.52;;
57092;Laerm;42968;52.094;4.328;2023-05-19T08:29:19;68.18;51.21;82.75;;
57092;Laerm;42968;52.094;4.328;2023-05-19T08:31:44;67.11;46.07;75.90;;
57092;Laerm;42968;52.094;4.328;2023-05-19T08:34:10;66.67;45.30;76.37;;
57092;Laerm;42968;52.094;4.328;2023-05-19T08:36:35;67.07;46.78;75.46;;
57092;Laerm;42968;52.094;4.328;2023-05-19T08:39:01;68.75;51.60;78.94;;
57092;Laerm;42968;52.094;4.328;2023-05-19T08:41:26;68.63;47.06;81.03;;
57092;Laerm;42968;52.094;4.328;2023-05-19T08:43:51;68.64;49.70;76.49;;
57092;Laerm;42968;52.094;4.328;2023-05-19T08:46:17;66.95;47.30;76.35;;
57092;Laerm;42968;52.094;4.328;2023-05-19T08:48:44;68.33;55.23;76.54;;
57092;Laerm;42968;52.094;4.328;2023-05-19T08:52:14;66.57;54.31;74.33;;
57092;Laerm;42968;52.094;4.328;2023-05-19T08:54:15;69.14;47.48;78.73;;
57092;Laerm;42968;52.094;4.328;2023-05-19T08:56:45;68.60;48.57;76.22;;
57092;Laerm;42968;52.094;4.328;2023-05-19T08:59:13;67.88;52.91;76.06;;
57092;Laerm;42968;52.094;4.328;2023-05-19T09:01:42;67.93;54.23;80.96;;
57092;Laerm;42968;52.094;4.328;2023-05-19T09:04:08;68.67;54.01;77.07;;
57092;Laerm;42968;52.094;4.328;2023-05-19T09:06:34;67.01;50.57;76.84;;
57092;Laerm;42968;52.094;4.328;2023-05-19T09:08:59;67.98;50.20;74.96;;
57092;Laerm;42968;52.094;4.328;2023-05-19T09:11:24;70.04;56.42;79.22;;
57092;Laerm;42968;52.094;4.328;2023-05-19T09:13:50;68.32;45.99;84.96;;
57092;Laerm;42968;52.094;4.328;2023-05-19T09:16:15;67.79;44.23;75.80;;
57092;Laerm;42968;52.094;4.328;2023-05-19T09:18:52;68.14;45.80;77.42;;
57092;Laerm;42968;52.094;4.328;2023-05-19T09:21:17;70.56;56.96;84.76;;
57092;Laerm;42968;52.094;4.328;2023-05-19T09:23:43;67.38;47.74;78.15;;
57092;Laerm;42968;52.094;4.328;2023-05-19T09:26:11;69.53;49.04;90.69;;
57092;Laerm;42968;52.094;4.328;2023-05-19T09:28:36;67.93;53.98;76.21;;
57092;Laerm;42968;52.094;4.328;2023-05-19T09:31:08;69.45;45.07;82.07;;
57092;Laerm;42968;52.094;4.328;2023-05-19T09:33:37;70.04;55.02;82.50;;
57092;Laerm;42968;52.094;4.328;2023-05-19T09:36:03;68.37;52.24;85.20;;
57092;Laerm;42968;52.094;4.328;2023-05-19T09:38:30;68.70;46.28;78.58;;
57092;Laerm;42968;52.094;4.328;2023-05-19T09:40:56;67.95;51.29;80.19;;
57092;Laerm;42968;52.094;4.328;2023-05-19T09:43:22;69.39;50.85;83.47;;
57092;Laerm;42968;52.094;4.328;2023-05-19T09:45:48;68.56;54.01;87.17;;
57092;Laerm;42968;52.094;4.328;2023-05-19T09:48:18;68.04;55.55;78.32;;
57092;Laerm;42968;52.094;4.328;2023-05-19T09:50:43;67.51;50.18;74.60;;
57092;Laerm;42968;52.094;4.328;2023-05-19T09:53:13;67.87;48.51;78.06;;
57092;Laerm;42968;52.094;4.328;2023-05-19T09:55:39;68.24;50.22;84.03;;
57092;Laerm;42968;52.094;4.328;2023-05-19T09:58:05;69.21;51.28;77.25;;
57092;Laerm;42968;52.094;4.328;2023-05-19T10:00:31;69.09;44.90;80.30;;
57092;Laerm;42968;52.094;4.328;2023-05-19T10:02:56;68.58;47.24;75.95;;
57092;Laerm;42968;52.094;4.328;2023-05-19T10:05:22;68.28;51.34;77.17;;
57092;Laerm;42968;52.094;4.328;2023-05-19T10:07:49;68.26;49.89;84.73;;
57092;Laerm;42968;52.094;4.328;2023-05-19T10:10:15;67.44;51.49;77.54;;
57092;Laerm;42968;52.094;4.328;2023-05-19T10:12:41;67.43;53.33;76.16;;
57092;Laerm;42968;52.094;4.328;2023-05-19T10:15:07;67.21;54.53;82.70;;
57092;Laerm;42968;52.094;4.328;2023-05-19T10:17:33;67.74;49.97;77.84;;
57092;Laerm;42968;52.094;4.328;2023-05-19T10:19:59;69.74;49.67;81.47;;
57092;Laerm;42968;52.094;4.328;2023-05-19T10:22:25;68.37;46.35;75.77;;
57092;Laerm;42968;52.094;4.328;2023-05-19T10:24:50;68.62;55.04;80.43;;
57092;Laerm;42968;52.094;4.328;2023-05-19T10:27:15;69.63;50.39;82.50;;
57092;Laerm;42968;52.094;4.328;2023-05-19T10:29:46;66.43;42.93;78.25;;
57092;Laerm;42968;52.094;4.328;2023-05-19T10:32:13;67.94;47.61;79.01;;
57092;Laerm;42968;52.094;4.328;2023-05-19T10:34:56;69.28;52.06;88.43;;
57092;Laerm;42968;52.094;4.328;2023-05-19T10:39:52;67.13;47.36;75.56;;
57092;Laerm;42968;52.094;4.328;2023-05-19T10:47:24;66.53;47.20;76.28;;
57092;Laerm;42968;52.094;4.328;2023-05-19T10:49:53;68.43;46.18;80.56;;
57092;Laerm;42968;52.094;4.328;2023-05-19T10:52:19;67.81;49.57;82.70;;
57092;Laerm;42968;52.094;4.328;2023-05-19T10:54:53;68.51;55.03;89.90;;
57092;Laerm;42968;52.094;4.328;2023-05-19T10:57:19;67.92;50.05;76.86;;
57092;Laerm;42968;52.094;4.328;2023-05-19T10:59:49;68.93;44.73;79.37;;
57092;Laerm;42968;52.094;4.328;2023-05-19T11:02:35;66.81;51.26;76.26;;
57092;Laerm;42968;52.094;4.328;2023-05-19T11:05:07;66.48;48.42;80.83;;
57092;Laerm;42968;52.094;4.328;2023-05-19T11:07:33;67.67;45.11;79.18;;
57092;Laerm;42968;52.094;4.328;2023-05-19T11:09:58;67.11;46.73;75.47;;
57092;Laerm;42968;52.094;4.328;2023-05-19T11:12:24;66.85;52.26;83.69;;
57092;Laerm;42968;52.094;4.328;2023-05-19T11:14:52;68.72;54.16;81.40;;
57092;Laerm;42968;52.094;4.328;2023-05-19T11:17:18;68.46;47.61;79.63;;
57092;Laerm;42968;52.094;4.328;2023-05-19T11:19:52;68.19;53.45;84.21;;
57092;Laerm;42968;52.094;4.328;2023-05-19T11:22:21;68.92;46.20;80.87;;
57092;Laerm;42968;52.094;4.328;2023-05-19T11:24:46;68.02;45.42;76.35;;
57092;Laerm;42968;52.094;4.328;2023-05-19T11:27:33;68.99;50.68;80.80;;
57092;Laerm;42968;52.094;4.328;2023-05-19T11:32:25;67.13;46.69;77.96;;
57092;Laerm;42968;52.094;4.328;2023-05-19T11:34:50;67.52;44.62;78.71;;
57092;Laerm;42968;52.094;4.328;2023-05-19T11:37:16;69.48;55.34;79.07;;
57092;Laerm;42968;52.094;4.328;2023-05-19T11:39:41;67.67;53.44;84.44;;
57092;Laerm;42968;52.094;4.328;2023-05-19T11:42:08;69.84;46.02;80.74;;
57092;Laerm;42968;52.094;4.328;2023-05-19T11:44:34;69.25;50.53;81.80;;
57092;Laerm;42968;52.094;4.328;2023-05-19T11:46:59;68.47;43.54;82.00;;
57092;Laerm;42968;52.094;4.328;2023-05-19T11:49:26;67.93;47.93;81.28;;
57092;Laerm;42968;52.094;4.328;2023-05-19T11:51:52;69.04;47.86;79.35;;
57092;Laerm;42968;52.094;4.328;2023-05-19T11:54:18;69.38;48.03;79.78;;
57092;Laerm;42968;52.094;4.328;2023-05-19T11:56:43;68.72;51.01;77.24;;
57092;Laerm;42968;52.094;4.328;2023-05-19T11:59:08;67.92;49.57;77.78;;
57092;Laerm;42968;52.094;4.328;2023-05-19T12:01:34;69.00;58.51;76.67;;
57092;Laerm;42968;52.094;4.328;2023-05-19T12:04:00;69.81;54.16;91.72;;
57092;Laerm;42968;52.094;4.328;2023-05-19T12:06:25;70.49;49.18;92.10;;
57092;Laerm;42968;52.094;4.328;2023-05-19T12:08:51;67.42;56.75;75.64;;
57092;Laerm;42968;52.094;4.328;2023-05-19T12:11:17;68.39;47.93;79.33;;
57092;Laerm;42968;52.094;4.328;2023-05-19T12:13:42;68.52;46.40;79.95;;
57092;Laerm;42968;52.094;4.328;2023-05-19T12:16:08;68.63;53.29;77.63;;
57092;Laerm;42968;52.094;4.328;2023-05-19T12:18:36;67.60;51.99;76.82;;
57092;Laerm;42968;52.094;4.328;2023-05-19T12:21:01;69.18;53.97;83.02;;
57092;Laerm;42968;52.094;4.328;2023-05-19T12:23:27;71.08;49.46;90.93;;
57092;Laerm;42968;52.094;4.328;2023-05-19T12:25:55;67.21;45.69;76.20;;
57092;Laerm;42968;52.094;4.328;2023-05-19T12:28:20;68.75;49.53;78.00;;
57092;Laerm;42968;52.094;4.328;2023-05-19T12:30:49;68.30;46.52;77.09;;
57092;Laerm;42968;52.094;4.328;2023-05-19T12:33:17;69.54;52.11;81.04;;
57092;Laerm;42968;52.094;4.328;2023-05-19T12:35:43;69.27;43.68;98.19;;
57092;Laerm;42968;52.094;4.328;2023-05-19T12:38:08;68.49;48.40;89.52;;
57092;Laerm;42968;52.094;4.328;2023-05-19T12:40:34;69.90;45.83;81.09;;
57092;Laerm;42968;52.094;4.328;2023-05-19T12:42:59;68.33;59.73;75.42;;
57092;Laerm;42968;52.094;4.328;2023-05-19T12:45:25;69.33;46.50;83.02;;
57092;Laerm;42968;52.094;4.328;2023-05-19T12:47:52;67.76;50.71;76.85;;
57092;Laerm;42968;52.094;4.328;2023-05-19T12:50:17;70.12;54.76;87.51;;
57092;Laerm;42968;52.094;4.328;2023-05-19T12:52:44;67.98;52.22;80.73;;
57092;Laerm;42968;52.094;4.328;2023-05-19T12:55:10;69.20;47.86;78.63;;
57092;Laerm;42968;52.094;4.328;2023-05-19T12:57:36;69.02;61.20;77.15;;
57092;Laerm;42968;52.094;4.328;2023-05-19T13:00:06;67.48;56.21;76.84;;
57092;Laerm;42968;52.094;4.328;2023-05-19T13:02:32;68.95;53.76;78.51;;
57092;Laerm;42968;52.094;4.328;2023-05-19T13:04:58;67.75;51.50;79.27;;
57092;Laerm;42968;52.094;4.328;2023-05-19T13:07:23;67.77;50.52;75.08;;
57092;Laerm;42968;52.094;4.328;2023-05-19T13:09:48;67.97;57.32;80.52;;
57092;Laerm;42968;52.094;4.328;2023-05-19T13:12:14;67.95;52.62;79.74;;
57092;Laerm;42968;52.094;4.328;2023-05-19T13:14:39;68.91;52.19;78.14;;
57092;Laerm;42968;52.094;4.328;2023-05-19T13:17:06;68.01;50.16;77.62;;
57092;Laerm;42968;52.094;4.328;2023-05-19T13:19:31;68.51;46.40;77.46;;
57092;Laerm;42968;52.094;4.328;2023-05-19T13:21:56;68.28;55.17;77.89;;
57092;Laerm;42968;52.094;4.328;2023-05-19T13:24:22;70.16;56.87;80.65;;
57092;Laerm;42968;52.094;4.328;2023-05-19T13:26:48;67.04;50.02;79.28;;
57092;Laerm;42968;52.094;4.328;2023-05-19T13:29:13;68.26;51.33;75.03;;
57092;Laerm;42968;52.094;4.328;2023-05-19T13:31:39;66.94;48.00;75.56;;
57092;Laerm;42968;52.094;4.328;2023-05-19T13:34:04;68.64;48.13;80.55;;
57092;Laerm;42968;52.094;4.328;2023-05-19T13:36:29;69.83;45.45;80.69;;
57092;Laerm;42968;52.094;4.328;2023-05-19T13:38:56;66.23;45.27;74.45;;
57092;Laerm;42968;52.094;4.328;2023-05-19T13:41:25;68.24;50.89;76.54;;
57092;Laerm;42968;52.094;4.328;2023-05-19T13:43:51;68.91;52.62;81.97;;
57092;Laerm;42968;52.094;4.328;2023-05-19T13:46:16;69.31;46.71;80.98;;
57092;Laerm;42968;52.094;4.328;2023-05-19T13:48:42;68.87;46.15;82.28;;
57092;Laerm;42968;52.094;4.328;2023-05-19T13:51:07;67.07;50.63;77.74;;
57092;Laerm;42968;52.094;4.328;2023-05-19T13:53:32;69.75;54.07;79.00;;
57092;Laerm;42968;52.094;4.328;2023-05-19T13:56:01;68.61;54.85;80.03;;
57092;Laerm;42968;52.094;4.328;2023-05-19T13:58:27;67.58;59.15;75.87;;
57092;Laerm;42968;52.094;4.328;2023-05-19T14:00:53;69.22;46.66;79.09;;
57092;Laerm;42968;52.094;4.328;2023-05-19T14:03:20;68.15;48.43;80.17;;
57092;Laerm;42968;52.094;4.328;2023-05-19T14:05:49;69.39;56.92;76.49;;
57092;Laerm;42968;52.094;4.328;2023-05-19T14:08:14;68.98;51.37;79.04;;